sensor_id;sensor_type;location;lat;lon;timestamp;pressure;altitude;pressure_sealevel;temperature;humidity
65010;BME280;51556;50.002;22.014;2023-02-14T00:00:40;100755.11;;;4.12;73.19
65010;BME280;51556;50.002;22.014;2023-02-14T00:03:06;100755.92;;;4.17;73.17
65010;BME280;51556;50.002;22.014;2023-02-14T00:05:31;100754.02;;;4.18;73.04
65010;BME280;51556;50.002;22.014;2023-02-14T00:07:57;100752.75;;;4.15;73.01
65010;BME280;51556;50.002;22.014;2023-02-14T00:10:22;100754.25;;;4.12;73.18
65010;BME280;51556;50.002;22.014;2023-02-14T00:12:48;100758.58;;;4.12;73.19
65010;BME280;51556;50.002;22.014;2023-02-14T00:15:13;100754.33;;;4.08;73.40
65010;BME280;51556;50.002;22.014;2023-02-14T00:17:50;100751.23;;;4.09;73.45
65010;BME280;51556;50.002;22.014;2023-02-14T00:20:16;100760.52;;;4.13;73.03
65010;BME280;51556;50.002;22.014;2023-02-14T00:22:42;100760.55;;;4.14;73.05
65010;BME280;51556;50.002;22.014;2023-02-14T00:25:08;100767.30;;;4.11;72.99
65010;BME280;51556;50.002;22.014;2023-02-14T00:27:34;100764.48;;;4.10;72.89
65010;BME280;51556;50.002;22.014;2023-02-14T00:29:59;100754.49;;;4.07;73.13
65010;BME280;51556;50.002;22.014;2023-02-14T00:32:28;100755.38;;;4.08;72.93
65010;BME280;51556;50.002;22.014;2023-02-14T00:34:53;100758.89;;;4.09;72.72
65010;BME280;51556;50.002;22.014;2023-02-14T00:37:19;100760.31;;;4.11;72.61
65010;BME280;51556;50.002;22.014;2023-02-14T00:39:44;100759.26;;;4.10;72.99
65010;BME280;51556;50.002;22.014;2023-02-14T00:42:10;100759.50;;;4.05;72.67
65010;BME280;51556;50.002;22.014;2023-02-14T00:44:35;100753.77;;;4.05;73.07
65010;BME280;51556;50.002;22.014;2023-02-14T00:47:02;100747.06;;;4.10;72.81
65010;BME280;51556;50.002;22.014;2023-02-14T00:49:27;100749.34;;;4.11;72.91
65010;BME280;51556;50.002;22.014;2023-02-14T00:51:52;100744.55;;;4.15;72.58
65010;BME280;51556;50.002;22.014;2023-02-14T00:54:18;100747.62;;;4.20;72.62
65010;BME280;51556;50.002;22.014;2023-02-14T00:56:43;100748.20;;;4.22;72.43
65010;BME280;51556;50.002;22.014;2023-02-14T00:59:10;100746.83;;;4.15;72.71
65010;BME280;51556;50.002;22.014;2023-02-14T01:01:36;100742.85;;;4.09;72.52
65010;BME280;51556;50.002;22.014;2023-02-14T01:04:01;100744.02;;;4.05;72.68
65010;BME280;51556;50.002;22.014;2023-02-14T01:06:27;100748.05;;;4.07;72.61
65010;BME280;51556;50.002;22.014;2023-02-14T01:08:52;100745.30;;;4.10;72.29
65010;BME280;51556;50.002;22.014;2023-02-14T01:11:20;100746.56;;;4.12;72.35
65010;BME280;51556;50.002;22.014;2023-02-14T01:13:47;100750.27;;;4.13;72.54
65010;BME280;51556;50.002;22.014;2023-02-14T01:16:16;100748.35;;;4.05;72.42
65010;BME280;51556;50.002;22.014;2023-02-14T01:18:42;100744.58;;;4.07;72.38
65010;BME280;51556;50.002;22.014;2023-02-14T01:21:27;100744.84;;;4.04;72.63
65010;BME280;51556;50.002;22.014;2023-02-14T01:23:56;100744.02;;;4.06;72.43
65010;BME280;51556;50.002;22.014;2023-02-14T01:26:23;100737.19;;;3.90;73.07
65010;BME280;51556;50.002;22.014;2023-02-14T01:28:49;100733.20;;;3.90;72.70
65010;BME280;51556;50.002;22.014;2023-02-14T01:31:18;100728.61;;;3.88;72.98
65010;BME280;51556;50.002;22.014;2023-02-14T01:33:46;100731.75;;;3.88;72.79
65010;BME280;51556;50.002;22.014;2023-02-14T01:36:23;100725.56;;;3.91;72.57
65010;BME280;51556;50.002;22.014;2023-02-14T01:38:56;100721.31;;;3.88;73.00
65010;BME280;51556;50.002;22.014;2023-02-14T01:41:24;100719.47;;;3.84;72.83
65010;BME280;51556;50.002;22.014;2023-02-14T01:43:52;100720.48;;;3.90;72.92
65010;BME280;51556;50.002;22.014;2023-02-14T01:46:18;100722.01;;;3.96;72.83
65010;BME280;51556;50.002;22.014;2023-02-14T01:48:45;100718.45;;;3.92;72.63
65010;BME280;51556;50.002;22.014;2023-02-14T01:51:12;100717.81;;;3.95;72.34
65010;BME280;51556;50.002;22.014;2023-02-14T01:53:38;100716.80;;;3.96;72.39
65010;BME280;51556;50.002;22.014;2023-02-14T01:56:07;100718.80;;;4.00;72.59
65010;BME280;51556;50.002;22.014;2023-02-14T01:58:35;100722.41;;;3.98;72.42
65010;BME280;51556;50.002;22.014;2023-02-14T02:01:02;100714.03;;;3.90;72.56
65010;BME280;51556;50.002;22.014;2023-02-14T02:09:04;100719.10;;;4.05;72.23
65010;BME280;51556;50.002;22.014;2023-02-14T02:11:33;100715.02;;;4.12;72.01
65010;BME280;51556;50.002;22.014;2023-02-14T02:13:59;100710.89;;;4.14;72.27
65010;BME280;51556;50.002;22.014;2023-02-14T02:27:23;100724.23;;;4.26;71.37
65010;BME280;51556;50.002;22.014;2023-02-14T02:33:01;100729.35;;;4.29;71.52
65010;BME280;51556;50.002;22.014;2023-02-14T02:35:43;100726.02;;;4.28;70.95
65010;BME280;51556;50.002;22.014;2023-02-14T02:38:42;100724.27;;;4.20;71.13
65010;BME280;51556;50.002;22.014;2023-02-14T02:44:15;100734.21;;;4.20;71.13
65010;BME280;51556;50.002;22.014;2023-02-14T02:47:32;100735.28;;;4.21;71.36
65010;BME280;51556;50.002;22.014;2023-02-14T02:53:17;100747.52;;;4.30;71.15
65010;BME280;51556;50.002;22.014;2023-02-14T02:58:36;100743.97;;;4.27;71.11
65010;BME280;51556;50.002;22.014;2023-02-14T03:01:09;100742.76;;;4.28;71.08
65010;BME280;51556;50.002;22.014;2023-02-14T03:03:36;100741.23;;;4.30;70.92
65010;BME280;51556;50.002;22.014;2023-02-14T03:06:22;100745.23;;;4.30;71.21
65010;BME280;51556;50.002;22.014;2023-02-14T03:08:47;100752.18;;;4.28;70.92
65010;BME280;51556;50.002;22.014;2023-02-14T03:11:13;100755.50;;;4.29;71.12
65010;BME280;51556;50.002;22.014;2023-02-14T03:13:52;100759.90;;;4.23;71.20
65010;BME280;51556;50.002;22.014;2023-02-14T03:18:54;100760.48;;;4.26;71.23
65010;BME280;51556;50.002;22.014;2023-02-14T03:24:10;100761.73;;;4.34;70.74
65010;BME280;51556;50.002;22.014;2023-02-14T03:26:49;100765.29;;;4.37;70.83
65010;BME280;51556;50.002;22.014;2023-02-14T03:34:30;100768.55;;;4.43;70.44
65010;BME280;51556;50.002;22.014;2023-02-14T03:37:05;100772.89;;;4.42;70.43
65010;BME280;51556;50.002;22.014;2023-02-14T03:42:13;100766.58;;;4.41;70.55
65010;BME280;51556;50.002;22.014;2023-02-14T03:44:42;100767.69;;;4.43;70.75
65010;BME280;51556;50.002;22.014;2023-02-14T03:47:11;100762.45;;;4.43;70.87
65010;BME280;51556;50.002;22.014;2023-02-14T03:49:45;100760.86;;;4.42;70.57
65010;BME280;51556;50.002;22.014;2023-02-14T03:52:13;100763.23;;;4.31;70.90
65010;BME280;51556;50.002;22.014;2023-02-14T03:54:39;100765.38;;;4.34;70.96
65010;BME280;51556;50.002;22.014;2023-02-14T03:57:13;100769.23;;;4.42;70.80
65010;BME280;51556;50.002;22.014;2023-02-14T03:59:41;100763.20;;;4.47;70.54
65010;BME280;51556;50.002;22.014;2023-02-14T04:02:16;100764.73;;;4.45;70.83
65010;BME280;51556;50.002;22.014;2023-02-14T04:04:45;100765.80;;;4.44;70.88
65010;BME280;51556;50.002;22.014;2023-02-14T04:07:15;100766.84;;;4.45;70.93
65010;BME280;51556;50.002;22.014;2023-02-14T04:09:40;100765.58;;;4.43;70.42
65010;BME280;51556;50.002;22.014;2023-02-14T04:12:06;100761.60;;;4.44;70.46
65010;BME280;51556;50.002;22.014;2023-02-14T04:14:32;100764.70;;;4.42;70.55
65010;BME280;51556;50.002;22.014;2023-02-14T04:16:57;100767.67;;;4.43;70.65
65010;BME280;51556;50.002;22.014;2023-02-14T04:19:41;100765.00;;;4.40;70.57
65010;BME280;51556;50.002;22.014;2023-02-14T04:22:07;100767.55;;;4.37;70.73
65010;BME280;51556;50.002;22.014;2023-02-14T04:24:32;100770.66;;;4.36;70.81
65010;BME280;51556;50.002;22.014;2023-02-14T04:26:57;100774.27;;;4.34;70.90
65010;BME280;51556;50.002;22.014;2023-02-14T04:32:07;100771.51;;;4.42;70.81
65010;BME280;51556;50.002;22.014;2023-02-14T04:34:33;100768.19;;;4.42;70.64
65010;BME280;51556;50.002;22.014;2023-02-14T04:36:59;100767.20;;;4.45;70.54
65010;BME280;51556;50.002;22.014;2023-02-14T04:39:24;100771.42;;;4.48;70.71
65010;BME280;51556;50.002;22.014;2023-02-14T04:41:50;100769.25;;;4.43;70.62
65010;BME280;51556;50.002;22.014;2023-02-14T04:44:15;100766.54;;;4.48;70.39
65010;BME280;51556;50.002;22.014;2023-02-14T04:46:40;100765.83;;;4.47;70.57
65010;BME280;51556;50.002;22.014;2023-02-14T04:49:06;100764.66;;;4.50;70.81
65010;BME280;51556;50.002;22.014;2023-02-14T04:51:31;100757.50;;;4.49;70.51
65010;BME280;51556;50.002;22.014;2023-02-14T04:53:57;100756.22;;;4.46;70.69
65010;BME280;51556;50.002;22.014;2023-02-14T04:56:22;100758.67;;;4.47;70.57
65010;BME280;51556;50.002;22.014;2023-02-14T04:58:50;100761.24;;;4.44;70.25
65010;BME280;51556;50.002;22.014;2023-02-14T05:01:15;100760.05;;;4.45;70.34
65010;BME280;51556;50.002;22.014;2023-02-14T05:03:40;100758.10;;;4.43;70.69
65010;BME280;51556;50.002;22.014;2023-02-14T05:06:06;100759.88;;;4.46;70.61
65010;BME280;51556;50.002;22.014;2023-02-14T05:08:31;100765.38;;;4.51;70.43
65010;BME280;51556;50.002;22.014;2023-02-14T05:10:57;100765.05;;;4.52;70.34
65010;BME280;51556;50.002;22.014;2023-02-14T05:13:22;100761.00;;;4.50;70.23
65010;BME280;51556;50.002;22.014;2023-02-14T05:15:48;100760.11;;;4.49;70.44
65010;BME280;51556;50.002;22.014;2023-02-14T05:18:13;100763.59;;;4.39;70.74
65010;BME280;51556;50.002;22.014;2023-02-14T05:20:38;100760.63;;;4.40;70.97
65010;BME280;51556;50.002;22.014;2023-02-14T05:23:04;100763.11;;;4.41;70.94
65010;BME280;51556;50.002;22.014;2023-02-14T05:25:30;100767.02;;;4.44;70.69
65010;BME280;51556;50.002;22.014;2023-02-14T05:27:56;100767.67;;;4.42;71.02
65010;BME280;51556;50.002;22.014;2023-02-14T05:30:21;100770.77;;;4.41;70.69
65010;BME280;51556;50.002;22.014;2023-02-14T05:32:51;100770.09;;;4.42;70.76
65010;BME280;51556;50.002;22.014;2023-02-14T05:35:17;100770.77;;;4.33;71.05
65010;BME280;51556;50.002;22.014;2023-02-14T05:37:42;100770.88;;;4.38;70.92
65010;BME280;51556;50.002;22.014;2023-02-14T05:40:08;100771.13;;;4.41;70.61
65010;BME280;51556;50.002;22.014;2023-02-14T05:42:33;100769.91;;;4.41;70.83
65010;BME280;51556;50.002;22.014;2023-02-14T05:44:59;100776.23;;;4.44;70.83
65010;BME280;51556;50.002;22.014;2023-02-14T05:47:24;100781.17;;;4.47;70.94
65010;BME280;51556;50.002;22.014;2023-02-14T05:49:50;100784.38;;;4.50;70.58
65010;BME280;51556;50.002;22.014;2023-02-14T05:52:15;100781.63;;;4.52;70.80
65010;BME280;51556;50.002;22.014;2023-02-14T05:54:40;100789.98;;;4.52;70.67
65010;BME280;51556;50.002;22.014;2023-02-14T05:57:06;100794.23;;;4.54;70.43
65010;BME280;51556;50.002;22.014;2023-02-14T05:59:31;100794.04;;;4.53;70.51
65010;BME280;51556;50.002;22.014;2023-02-14T06:01:57;100796.89;;;4.56;70.40
65010;BME280;51556;50.002;22.014;2023-02-14T06:04:22;100804.13;;;4.60;70.38
65010;BME280;51556;50.002;22.014;2023-02-14T06:06:47;100804.33;;;4.61;70.40
65010;BME280;51556;50.002;22.014;2023-02-14T06:09:13;100804.71;;;4.63;70.22
65010;BME280;51556;50.002;22.014;2023-02-14T06:11:39;100811.23;;;4.65;70.41
65010;BME280;51556;50.002;22.014;2023-02-14T06:14:04;100811.83;;;4.68;70.25
65010;BME280;51556;50.002;22.014;2023-02-14T06:16:30;100809.61;;;4.71;70.34
65010;BME280;51556;50.002;22.014;2023-02-14T06:18:55;100813.31;;;4.66;70.23
65010;BME280;51556;50.002;22.014;2023-02-14T06:21:21;100814.30;;;4.63;70.17
65010;BME280;51556;50.002;22.014;2023-02-14T06:23:46;100814.44;;;4.61;70.52
65010;BME280;51556;50.002;22.014;2023-02-14T06:26:11;100817.02;;;4.59;70.54
65010;BME280;51556;50.002;22.014;2023-02-14T06:28:37;100819.66;;;4.60;70.50
65010;BME280;51556;50.002;22.014;2023-02-14T06:31:02;100818.35;;;4.64;70.53
65010;BME280;51556;50.002;22.014;2023-02-14T06:33:27;100818.29;;;4.69;70.34
65010;BME280;51556;50.002;22.014;2023-02-14T06:35:53;100824.60;;;4.71;70.33
65010;BME280;51556;50.002;22.014;2023-02-14T06:38:18;100818.69;;;4.64;70.44
65010;BME280;51556;50.002;22.014;2023-02-14T06:40:44;100824.98;;;4.64;70.37
65010;BME280;51556;50.002;22.014;2023-02-14T06:43:09;100833.02;;;4.65;70.46
65010;BME280;51556;50.002;22.014;2023-02-14T06:45:35;100823.45;;;4.66;70.43
65010;BME280;51556;50.002;22.014;2023-02-14T06:48:00;100822.50;;;4.70;70.35
65010;BME280;51556;50.002;22.014;2023-02-14T06:50:26;100821.56;;;4.67;70.28
65010;BME280;51556;50.002;22.014;2023-02-14T06:52:51;100820.83;;;4.66;70.53
65010;BME280;51556;50.002;22.014;2023-02-14T06:55:17;100824.25;;;4.63;70.43
65010;BME280;51556;50.002;22.014;2023-02-14T06:57:43;100825.52;;;4.65;70.81
65010;BME280;51556;50.002;22.014;2023-02-14T07:00:09;100825.71;;;4.74;70.62
65010;BME280;51556;50.002;22.014;2023-02-14T07:02:34;100827.36;;;4.77;70.34
65010;BME280;51556;50.002;22.014;2023-02-14T07:04:59;100825.10;;;4.78;70.31
65010;BME280;51556;50.002;22.014;2023-02-14T07:07:25;100829.34;;;4.80;70.52
65010;BME280;51556;50.002;22.014;2023-02-14T07:09:50;100827.55;;;4.87;70.04
65010;BME280;51556;50.002;22.014;2023-02-14T07:12:16;100825.12;;;4.88;70.12
65010;BME280;51556;50.002;22.014;2023-02-14T07:14:41;100823.84;;;4.85;70.34
65010;BME280;51556;50.002;22.014;2023-02-14T07:17:07;100820.02;;;4.87;70.11
65010;BME280;51556;50.002;22.014;2023-02-14T07:19:32;100817.07;;;4.87;70.22
65010;BME280;51556;50.002;22.014;2023-02-14T07:21:58;100820.92;;;4.70;70.47
65010;BME280;51556;50.002;22.014;2023-02-14T07:24:23;100819.23;;;4.65;70.81
65010;BME280;51556;50.002;22.014;2023-02-14T07:26:49;100814.98;;;4.69;70.79
65010;BME280;51556;50.002;22.014;2023-02-14T07:29:14;100816.54;;;4.69;70.66
65010;BME280;51556;50.002;22.014;2023-02-14T07:31:40;100818.75;;;4.59;71.20
65010;BME280;51556;50.002;22.014;2023-02-14T07:34:05;100818.63;;;4.54;71.28
65010;BME280;51556;50.002;22.014;2023-02-14T07:36:30;100818.75;;;4.59;71.07
65010;BME280;51556;50.002;22.014;2023-02-14T07:38:56;100817.98;;;4.63;71.09
65010;BME280;51556;50.002;22.014;2023-02-14T07:41:22;100823.69;;;4.69;71.93
65010;BME280;51556;50.002;22.014;2023-02-14T07:43:47;100825.48;;;4.71;72.29
65010;BME280;51556;50.002;22.014;2023-02-14T07:46:12;100826.17;;;4.79;71.52
65010;BME280;51556;50.002;22.014;2023-02-14T07:48:38;100828.41;;;4.87;71.26
65010;BME280;51556;50.002;22.014;2023-02-14T07:51:03;100828.59;;;4.96;70.96
65010;BME280;51556;50.002;22.014;2023-02-14T07:53:29;100829.34;;;4.98;70.34
65010;BME280;51556;50.002;22.014;2023-02-14T07:55:54;100832.46;;;4.97;70.44
65010;BME280;51556;50.002;22.014;2023-02-14T07:58:20;100831.15;;;5.01;70.53
65010;BME280;51556;50.002;22.014;2023-02-14T08:00:45;100828.23;;;5.02;70.50
65010;BME280;51556;50.002;22.014;2023-02-14T08:03:12;100833.71;;;5.06;70.34
65010;BME280;51556;50.002;22.014;2023-02-14T08:05:37;100837.64;;;5.11;70.25
65010;BME280;51556;50.002;22.014;2023-02-14T08:08:03;100840.14;;;5.13;70.18
65010;BME280;51556;50.002;22.014;2023-02-14T08:10:28;100840.15;;;5.14;70.07
65010;BME280;51556;50.002;22.014;2023-02-14T08:12:53;100836.83;;;5.13;69.90
65010;BME280;51556;50.002;22.014;2023-02-14T08:15:32;100838.14;;;5.18;69.96
65010;BME280;51556;50.002;22.014;2023-02-14T08:18:36;100836.70;;;5.16;69.96
65010;BME280;51556;50.002;22.014;2023-02-14T08:21:02;100836.81;;;5.23;70.07
65010;BME280;51556;50.002;22.014;2023-02-14T08:23:28;100840.21;;;5.27;70.07
65010;BME280;51556;50.002;22.014;2023-02-14T08:25:53;100841.23;;;5.33;69.66
65010;BME280;51556;50.002;22.014;2023-02-14T08:28:19;100841.24;;;5.34;69.50
65010;BME280;51556;50.002;22.014;2023-02-14T08:30:45;100841.54;;;5.32;69.52
65010;BME280;51556;50.002;22.014;2023-02-14T08:33:11;100841.80;;;5.27;69.70
65010;BME280;51556;50.002;22.014;2023-02-14T08:35:36;100844.27;;;5.29;69.63
65010;BME280;51556;50.002;22.014;2023-02-14T08:38:02;100845.61;;;5.26;69.63
65010;BME280;51556;50.002;22.014;2023-02-14T08:40:28;100846.61;;;5.24;69.82
65010;BME280;51556;50.002;22.014;2023-02-14T08:42:53;100851.34;;;5.24;69.90
65010;BME280;51556;50.002;22.014;2023-02-14T08:45:19;100856.53;;;5.22;69.82
65010;BME280;51556;50.002;22.014;2023-02-14T08:47:44;100855.52;;;5.15;70.04
65010;BME280;51556;50.002;22.014;2023-02-14T08:50:13;100854.89;;;5.17;70.29
65010;BME280;51556;50.002;22.014;2023-02-14T08:52:39;100859.58;;;5.26;70.14
65010;BME280;51556;50.002;22.014;2023-02-14T08:55:05;100863.67;;;5.29;69.71
65010;BME280;51556;50.002;22.014;2023-02-14T08:57:31;100865.38;;;5.28;69.80
65010;BME280;51556;50.002;22.014;2023-02-14T08:59:56;100865.08;;;5.30;69.82
65010;BME280;51556;50.002;22.014;2023-02-14T09:02:21;100865.55;;;5.36;69.81
65010;BME280;51556;50.002;22.014;2023-02-14T09:04:47;100868.77;;;5.40;69.56
65010;BME280;51556;50.002;22.014;2023-02-14T09:07:13;100868.42;;;5.41;69.58
65010;BME280;51556;50.002;22.014;2023-02-14T09:09:39;100870.28;;;5.46;69.33
65010;BME280;51556;50.002;22.014;2023-02-14T09:12:05;100873.71;;;5.43;69.47
65010;BME280;51556;50.002;22.014;2023-02-14T09:14:41;100874.99;;;5.46;69.67
65010;BME280;51556;50.002;22.014;2023-02-14T09:17:13;100872.39;;;5.47;69.22
65010;BME280;51556;50.002;22.014;2023-02-14T09:19:39;100871.48;;;5.45;69.57
65010;BME280;51556;50.002;22.014;2023-02-14T09:22:06;100872.17;;;5.53;69.52
65010;BME280;51556;50.002;22.014;2023-02-14T09:24:33;100872.63;;;5.60;69.32
65010;BME280;51556;50.002;22.014;2023-02-14T09:26:58;100875.84;;;5.64;69.04
65010;BME280;51556;50.002;22.014;2023-02-14T09:29:25;100878.67;;;5.65;69.06
65010;BME280;51556;50.002;22.014;2023-02-14T09:31:54;100874.89;;;5.68;69.32
65010;BME280;51556;50.002;22.014;2023-02-14T09:34:20;100876.39;;;5.75;69.11
65010;BME280;51556;50.002;22.014;2023-02-14T09:36:46;100880.77;;;5.75;68.69
65010;BME280;51556;50.002;22.014;2023-02-14T09:39:11;100880.46;;;5.77;68.73
65010;BME280;51556;50.002;22.014;2023-02-14T09:44:41;100885.75;;;5.70;68.44
65010;BME280;51556;50.002;22.014;2023-02-14T09:49:49;100882.65;;;5.64;68.73
65010;BME280;51556;50.002;22.014;2023-02-14T09:52:17;100880.27;;;5.57;68.53
65010;BME280;51556;50.002;22.014;2023-02-14T09:54:48;100877.02;;;5.62;68.71
65010;BME280;51556;50.002;22.014;2023-02-14T10:02:46;100880.44;;;5.57;68.92
65010;BME280;51556;50.002;22.014;2023-02-14T10:07:55;100873.77;;;5.65;68.80
65010;BME280;51556;50.002;22.014;2023-02-14T10:10:52;100874.60;;;5.63;68.57
65010;BME280;51556;50.002;22.014;2023-02-14T10:13:35;100870.00;;;5.69;68.73
65010;BME280;51556;50.002;22.014;2023-02-14T10:16:15;100868.27;;;5.70;68.62
65010;BME280;51556;50.002;22.014;2023-02-14T10:18:51;100864.32;;;5.74;68.62
65010;BME280;51556;50.002;22.014;2023-02-14T10:21:24;100861.60;;;5.78;68.42
65010;BME280;51556;50.002;22.014;2023-02-14T10:24:08;100860.09;;;5.81;68.26
65010;BME280;51556;50.002;22.014;2023-02-14T10:26:37;100857.72;;;5.76;68.22
65010;BME280;51556;50.002;22.014;2023-02-14T10:29:15;100861.18;;;5.64;68.29
65010;BME280;51556;50.002;22.014;2023-02-14T10:34:47;100855.63;;;5.57;68.83
65010;BME280;51556;50.002;22.014;2023-02-14T10:42:54;100857.71;;;5.56;68.57
65010;BME280;51556;50.002;22.014;2023-02-14T10:45:50;100850.52;;;5.54;68.70
65010;BME280;51556;50.002;22.014;2023-02-14T10:51:17;100846.58;;;5.59;68.76
65010;BME280;51556;50.002;22.014;2023-02-14T10:56:19;100842.94;;;5.70;68.74
65010;BME280;51556;50.002;22.014;2023-02-14T10:58:45;100841.03;;;5.71;68.63
65010;BME280;51556;50.002;22.014;2023-02-14T11:01:16;100840.76;;;5.74;68.40
65010;BME280;51556;50.002;22.014;2023-02-14T11:03:54;100837.61;;;5.75;68.49
65010;BME280;51556;50.002;22.014;2023-02-14T11:06:22;100836.31;;;5.81;68.62
65010;BME280;51556;50.002;22.014;2023-02-14T11:08:48;100831.66;;;5.92;68.56
65010;BME280;51556;50.002;22.014;2023-02-14T11:11:52;100833.59;;;6.04;68.23
65010;BME280;51556;50.002;22.014;2023-02-14T11:16:46;100828.56;;;6.07;67.61
65010;BME280;51556;50.002;22.014;2023-02-14T11:19:33;100826.38;;;6.12;67.51
65010;BME280;51556;50.002;22.014;2023-02-14T11:21:59;100824.05;;;6.19;67.58
65010;BME280;51556;50.002;22.014;2023-02-14T11:24:29;100823.43;;;6.24;67.35
65010;BME280;51556;50.002;22.014;2023-02-14T11:27:04;100819.25;;;6.25;66.74
65010;BME280;51556;50.002;22.014;2023-02-14T11:32:08;100810.10;;;6.11;66.87
65010;BME280;51556;50.002;22.014;2023-02-14T11:34:41;100814.06;;;6.18;66.89
65010;BME280;51556;50.002;22.014;2023-02-14T11:39:51;100803.41;;;6.09;66.79
65010;BME280;51556;50.002;22.014;2023-02-14T11:44:58;100803.13;;;6.12;66.79
65010;BME280;51556;50.002;22.014;2023-02-14T11:47:32;100800.23;;;6.17;66.94
65010;BME280;51556;50.002;22.014;2023-02-14T11:49:59;100801.61;;;6.27;66.68
65010;BME280;51556;50.002;22.014;2023-02-14T11:52:26;100798.76;;;6.36;66.17
65010;BME280;51556;50.002;22.014;2023-02-14T11:54:54;100795.20;;;6.44;65.95
65010;BME280;51556;50.002;22.014;2023-02-14T11:57:33;100791.82;;;6.65;65.68
65010;BME280;51556;50.002;22.014;2023-02-14T12:00:00;100792.38;;;6.82;65.30
65010;BME280;51556;50.002;22.014;2023-02-14T12:02:42;100793.69;;;6.75;64.79
65010;BME280;51556;50.002;22.014;2023-02-14T12:05:16;100790.41;;;6.80;65.01
65010;BME280;51556;50.002;22.014;2023-02-14T12:07:46;100787.91;;;6.88;65.38
65010;BME280;51556;50.002;22.014;2023-02-14T12:15:32;100783.30;;;6.85;64.60
65010;BME280;51556;50.002;22.014;2023-02-14T12:18:20;100780.58;;;6.90;64.87
65010;BME280;51556;50.002;22.014;2023-02-14T12:23:40;100773.91;;;6.89;64.88
65010;BME280;51556;50.002;22.014;2023-02-14T12:28:48;100776.08;;;6.95;64.54
65010;BME280;51556;50.002;22.014;2023-02-14T12:31:16;100770.59;;;7.04;64.74
65010;BME280;51556;50.002;22.014;2023-02-14T12:33:42;100767.61;;;7.05;64.38
65010;BME280;51556;50.002;22.014;2023-02-14T12:39:05;100766.07;;;7.09;63.75
65010;BME280;51556;50.002;22.014;2023-02-14T12:41:37;100774.95;;;7.02;63.81
65010;BME280;51556;50.002;22.014;2023-02-14T12:44:11;100776.67;;;6.99;64.00
65010;BME280;51556;50.002;22.014;2023-02-14T12:52:58;100763.96;;;7.09;64.39
65010;BME280;51556;50.002;22.014;2023-02-14T12:55:50;100762.20;;;7.06;64.00
65010;BME280;51556;50.002;22.014;2023-02-14T13:01:52;100768.63;;;7.00;64.04
65010;BME280;51556;50.002;22.014;2023-02-14T13:08:08;100764.27;;;7.02;64.42
65010;BME280;51556;50.002;22.014;2023-02-14T13:13:47;100767.78;;;7.02;63.87
65010;BME280;51556;50.002;22.014;2023-02-14T13:18:42;100773.48;;;6.97;63.84
65010;BME280;51556;50.002;22.014;2023-02-14T13:21:14;100772.45;;;6.98;64.10
65010;BME280;51556;50.002;22.014;2023-02-14T13:23:44;100772.12;;;6.99;64.19
65010;BME280;51556;50.002;22.014;2023-02-14T13:26:16;100777.25;;;7.04;64.09
65010;BME280;51556;50.002;22.014;2023-02-14T13:28:57;100777.66;;;7.12;64.01
65010;BME280;51556;50.002;22.014;2023-02-14T13:31:26;100774.73;;;7.16;63.88
65010;BME280;51556;50.002;22.014;2023-02-14T13:33:59;100776.48;;;7.16;63.66
65010;BME280;51556;50.002;22.014;2023-02-14T13:36:27;100775.67;;;7.21;64.01
65010;BME280;51556;50.002;22.014;2023-02-14T13:38:54;100775.58;;;7.27;63.71
65010;BME280;51556;50.002;22.014;2023-02-14T13:41:21;100775.75;;;7.28;63.88
65010;BME280;51556;50.002;22.014;2023-02-14T13:43:54;100776.58;;;7.24;63.95
65010;BME280;51556;50.002;22.014;2023-02-14T13:49:32;100780.19;;;7.33;63.41
65010;BME280;51556;50.002;22.014;2023-02-14T13:52:03;100784.42;;;7.36;63.44
65010;BME280;51556;50.002;22.014;2023-02-14T13:54:45;100780.80;;;7.25;63.35
65010;BME280;51556;50.002;22.014;2023-02-14T13:57:35;100776.52;;;7.18;63.61
65010;BME280;51556;50.002;22.014;2023-02-14T14:02:54;100773.93;;;7.22;63.79
65010;BME280;51556;50.002;22.014;2023-02-14T14:10:52;100780.15;;;6.98;64.26
65010;BME280;51556;50.002;22.014;2023-02-14T14:21:26;100777.52;;;6.98;64.55
65010;BME280;51556;50.002;22.014;2023-02-14T14:26:35;100777.36;;;6.98;64.48
65010;BME280;51556;50.002;22.014;2023-02-14T14:29:09;100778.16;;;6.93;64.54
65010;BME280;51556;50.002;22.014;2023-02-14T14:31:36;100777.30;;;6.93;64.53
65010;BME280;51556;50.002;22.014;2023-02-14T14:34:02;100781.83;;;6.92;64.52
65010;BME280;51556;50.002;22.014;2023-02-14T14:36:27;100782.48;;;6.88;64.53
65010;BME280;51556;50.002;22.014;2023-02-14T14:38:53;100787.32;;;6.83;64.53
65010;BME280;51556;50.002;22.014;2023-02-14T14:41:25;100788.06;;;6.87;64.75
65010;BME280;51556;50.002;22.014;2023-02-14T14:43:52;100794.29;;;6.81;64.62
65010;BME280;51556;50.002;22.014;2023-02-14T14:46:18;100787.35;;;6.73;64.83
65010;BME280;51556;50.002;22.014;2023-02-14T14:48:46;100787.55;;;6.75;64.85
65010;BME280;51556;50.002;22.014;2023-02-14T14:54:06;100791.23;;;6.75;64.85
65010;BME280;51556;50.002;22.014;2023-02-14T14:57:05;100786.85;;;6.75;65.01
65010;BME280;51556;50.002;22.014;2023-02-14T14:59:33;100789.88;;;6.78;64.99
65010;BME280;51556;50.002;22.014;2023-02-14T15:02:22;100787.98;;;6.81;65.08
65010;BME280;51556;50.002;22.014;2023-02-14T15:04:50;100788.53;;;6.83;64.68
65010;BME280;51556;50.002;22.014;2023-02-14T15:07:31;100786.36;;;6.78;64.91
65010;BME280;51556;50.002;22.014;2023-02-14T15:09:57;100786.70;;;6.62;65.22
65010;BME280;51556;50.002;22.014;2023-02-14T15:12:23;100785.19;;;6.53;65.61
65010;BME280;51556;50.002;22.014;2023-02-14T15:15:12;100783.45;;;6.54;65.51
65010;BME280;51556;50.002;22.014;2023-02-14T15:17:40;100785.80;;;6.59;65.40
65010;BME280;51556;50.002;22.014;2023-02-14T15:20:09;100783.58;;;6.63;65.39